createdAt,value
2023-09-08T00:00:27.991Z,8.00
2023-09-08T00:03:15.508Z,10.57
2023-09-08T00:05:43.364Z,10.30
2023-09-08T00:08:10.356Z,9.10
2023-09-08T00:10:37.819Z,11.75
2023-09-08T00:13:04.951Z,9.98
2023-09-08T00:15:36.070Z,8.82
2023-09-08T00:18:03.407Z,10.30
2023-09-08T00:20:30.796Z,10.80
2023-09-08T00:22:57.892Z,10.13
2023-09-08T00:25:25.195Z,8.48
2023-09-08T00:27:52.243Z,8.95
2023-09-08T00:30:19.671Z,9.52
2023-09-08T00:32:46.954Z,8.23
2023-09-08T00:35:14.816Z,8.05
2023-09-08T00:37:42.158Z,7.53
2023-09-08T00:40:10.899Z,7.88
2023-09-08T00:42:38.207Z,8.60
2023-09-08T00:45:06.314Z,8.27
2023-09-08T00:47:35.614Z,7.78
2023-09-08T00:50:07.387Z,7.32
2023-09-08T00:52:35.013Z,6.93
2023-09-08T00:55:03.576Z,9.73
2023-09-08T00:57:31.711Z,8.73
2023-09-08T00:59:59.807Z,9.05
2023-09-08T01:02:27.172Z,9.07
2023-09-08T01:04:54.749Z,9.75
2023-09-08T01:07:22.419Z,6.90
2023-09-08T01:09:51.581Z,8.07
2023-09-08T01:12:20.239Z,10.75
2023-09-08T01:14:47.612Z,7.75
2023-09-08T01:17:14.866Z,7.88
2023-09-08T01:19:46.039Z,8.27
2023-09-08T01:22:50.583Z,9.18
2023-09-08T01:25:24.760Z,7.72
2023-09-08T01:27:55.812Z,8.35
2023-09-08T01:30:27.734Z,9.73
2023-09-08T01:32:56.523Z,11.98
2023-09-08T01:35:25.164Z,8.85
2023-09-08T01:37:52.522Z,9.73
2023-09-08T01:40:20.038Z,11.00
2023-09-08T01:42:47.152Z,9.60
2023-09-08T01:45:14.933Z,10.05
2023-09-08T01:47:42.829Z,9.07
2023-09-08T01:50:10.658Z,10.05
2023-09-08T01:52:38.070Z,10.18
2023-09-08T01:55:06.444Z,9.50
2023-09-08T01:57:33.576Z,10.05
2023-09-08T02:00:01.366Z,12.02
2023-09-08T02:02:28.515Z,10.63
2023-09-08T02:04:55.800Z,10.40
2023-09-08T02:07:23.032Z,9.07
2023-09-08T02:09:52.830Z,10.25
2023-09-08T02:12:20.593Z,9.20
2023-09-08T02:14:48.178Z,8.90
2023-09-08T02:17:15.555Z,9.63
2023-09-08T02:19:42.831Z,9.52
2023-09-08T02:22:10.586Z,9.88
2023-09-08T02:24:37.923Z,10.25
2023-09-08T02:27:05.641Z,11.82
2023-09-08T02:29:33.026Z,10.10
2023-09-08T02:32:00.069Z,10.45
2023-09-08T02:34:27.474Z,11.43
2023-09-08T02:36:54.496Z,10.55
2023-09-08T02:39:27.854Z,11.40
2023-09-08T02:41:55.949Z,10.25
2023-09-08T02:44:23.546Z,10.52
2023-09-08T02:46:50.975Z,10.65
2023-09-08T02:49:18.450Z,8.52
2023-09-08T02:51:45.615Z,9.68
2023-09-08T02:54:13.474Z,8.38
2023-09-08T02:56:40.526Z,8.82
2023-09-08T02:59:08.271Z,7.47
2023-09-08T03:01:36.113Z,7.53
2023-09-08T03:04:04.833Z,7.50
2023-09-08T03:06:33.316Z,10.52
2023-09-08T03:09:01.060Z,7.90
2023-09-08T03:11:28.364Z,7.85
2023-09-08T03:13:55.662Z,8.40
2023-09-08T03:16:22.957Z,8.18
2023-09-08T03:18:50.240Z,8.45
2023-09-08T03:21:17.387Z,9.35
2023-09-08T03:23:46.661Z,8.98
2023-09-08T03:26:15.389Z,8.00
2023-09-08T03:28:43.945Z,7.57
2023-09-08T03:31:11.705Z,9.40
2023-09-08T03:33:40.041Z,8.88
2023-09-08T03:36:09.101Z,9.85
2023-09-08T03:38:38.603Z,9.75
2023-09-08T03:41:07.191Z,10.40
2023-09-08T03:43:34.926Z,10.13
2023-09-08T03:46:03.014Z,11.18
2023-09-08T03:48:30.403Z,9.05
2023-09-08T03:50:57.706Z,10.38
2023-09-08T03:53:25.405Z,7.63
2023-09-08T03:55:52.728Z,7.80
2023-09-08T03:58:21.023Z,7.47
2023-09-08T04:00:49.003Z,7.22
2023-09-08T04:03:16.498Z,7.20
2023-09-08T04:05:43.643Z,8.23
2023-09-08T04:08:11.604Z,8.65
2023-09-08T04:10:38.753Z,8.52
2023-09-08T04:13:06.057Z,8.18
2023-09-08T04:15:33.900Z,7.00
2023-09-08T04:18:04.507Z,6.65
2023-09-08T04:20:31.764Z,7.15
2023-09-08T04:22:59.316Z,9.70
2023-09-08T04:25:26.740Z,7.47
2023-09-08T04:27:54.212Z,9.45
2023-09-08T04:30:22.525Z,8.32
2023-09-08T04:32:49.939Z,8.15
2023-09-08T04:35:17.092Z,6.95
2023-09-08T04:37:44.987Z,7.10
2023-09-08T04:40:12.253Z,8.90
2023-09-08T04:42:39.795Z,7.70
2023-09-08T04:45:08.776Z,7.55
2023-09-08T04:47:37.369Z,7.60
2023-09-08T04:50:07.730Z,8.13
2023-09-08T04:52:35.240Z,6.53
2023-09-08T04:55:05.779Z,7.88
2023-09-08T04:57:33.165Z,7.45
2023-09-08T05:00:00.377Z,9.50
2023-09-08T05:02:29.741Z,8.73
2023-09-08T05:04:57.016Z,8.32
2023-09-08T05:07:25.018Z,9.73
2023-09-08T05:09:53.102Z,8.10
2023-09-08T05:12:21.317Z,7.20
2023-09-08T05:14:48.443Z,9.43
2023-09-08T05:17:16.026Z,11.40
2023-09-08T05:19:42.999Z,10.05
2023-09-08T05:22:10.438Z,11.70
2023-09-08T05:24:37.460Z,11.90
2023-09-08T05:27:05.522Z,10.30
2023-09-08T05:29:33.182Z,11.52
2023-09-08T05:32:01.092Z,13.80
2023-09-08T05:34:31.685Z,8.93
2023-09-08T05:36:59.067Z,10.50
2023-09-08T05:39:26.390Z,12.02
2023-09-08T05:41:54.022Z,11.02
2023-09-08T05:44:21.712Z,8.82
2023-09-08T05:46:50.474Z,8.88
2023-09-08T05:49:19.073Z,9.07
2023-09-08T05:51:46.914Z,10.35
2023-09-08T05:54:14.306Z,8.63
2023-09-08T05:56:41.761Z,10.38
2023-09-08T05:59:08.922Z,11.45
2023-09-08T06:01:37.983Z,11.73
2023-09-08T06:04:07.924Z,11.02
2023-09-08T06:06:35.679Z,15.13
2023-09-08T06:09:03.931Z,14.38
2023-09-08T06:11:31.218Z,15.20
2023-09-08T06:14:00.468Z,11.80
2023-09-08T06:16:36.718Z,14.90
2023-09-08T06:19:04.530Z,12.98
2023-09-08T06:21:32.209Z,10.88
2023-09-08T06:23:59.885Z,16.45
2023-09-08T06:26:29.434Z,14.10
2023-09-08T06:28:57.402Z,15.05
2023-09-08T06:31:25.128Z,17.27
2023-09-08T06:33:53.653Z,12.50
2023-09-08T06:36:21.981Z,14.35
2023-09-08T06:38:49.159Z,12.57
2023-09-08T06:41:16.622Z,11.43
2023-09-08T06:43:45.108Z,15.25
2023-09-08T06:46:18.204Z,14.05
2023-09-08T06:48:45.799Z,17.63
2023-09-08T06:51:13.685Z,18.70
2023-09-08T06:53:41.359Z,18.40
2023-09-08T06:56:08.724Z,18.38
2023-09-08T06:58:36.023Z,17.55
2023-09-08T07:01:05.220Z,16.45
2023-09-08T07:03:38.213Z,13.02
2023-09-08T07:06:07.910Z,15.30
2023-09-08T07:08:35.628Z,17.55
2023-09-08T07:11:04.037Z,19.63
2023-09-08T07:13:31.444Z,17.13
2023-09-08T07:15:59.573Z,18.65
2023-09-08T07:18:29.594Z,14.77
2023-09-08T07:20:57.246Z,12.18
2023-09-08T07:23:24.380Z,14.07
2023-09-08T07:25:52.673Z,14.40
2023-09-08T07:28:24.248Z,14.10
2023-09-08T07:30:53.330Z,11.10
2023-09-08T07:33:23.657Z,12.75
2023-09-08T07:35:51.504Z,11.05
2023-09-08T07:38:18.648Z,15.30
2023-09-08T07:40:46.297Z,16.40
2023-09-08T07:43:13.598Z,12.00
2023-09-08T07:45:42.011Z,11.63
2023-09-08T07:48:09.222Z,11.63
2023-09-08T07:50:37.075Z,10.35
2023-09-08T07:53:04.183Z,11.85
2023-09-08T07:55:31.708Z,12.43
2023-09-08T07:57:59.800Z,13.25
2023-09-08T08:00:28.285Z,14.15
2023-09-08T08:02:57.956Z,12.90
2023-09-08T08:05:27.048Z,11.50
2023-09-08T08:07:54.210Z,12.55
2023-09-08T08:10:21.621Z,14.70
2023-09-08T08:12:48.866Z,9.75
2023-09-08T08:15:16.425Z,10.98
2023-09-08T08:17:43.664Z,10.52
2023-09-08T08:20:18.432Z,11.30
2023-09-08T08:22:47.180Z,10.60
2023-09-08T08:25:14.947Z,11.70
2023-09-08T08:27:42.871Z,10.88
2023-09-08T08:30:12.471Z,10.32
2023-09-08T08:32:40.085Z,9.55
2023-09-08T08:35:08.258Z,10.88
2023-09-08T08:37:35.897Z,12.05
2023-09-08T08:40:06.323Z,10.07
2023-09-08T08:42:34.554Z,8.68
2023-09-08T08:45:04.281Z,10.48
2023-09-08T08:47:32.157Z,9.05
2023-09-08T08:50:04.215Z,8.27
2023-09-08T08:52:32.542Z,9.55
2023-09-08T08:55:06.544Z,8.75
2023-09-08T08:57:34.082Z,9.10
2023-09-08T09:00:05.764Z,12.45
2023-09-08T09:02:34.710Z,8.88
2023-09-08T09:05:05.703Z,7.47
2023-09-08T09:07:33.970Z,10.73
2023-09-08T09:10:03.419Z,7.90
2023-09-08T09:12:31.418Z,10.52
2023-09-08T09:15:00.980Z,9.25
2023-09-08T09:17:28.212Z,9.52
2023-09-08T09:20:21.191Z,7.85
2023-09-08T09:22:50.225Z,7.57
2023-09-08T09:25:29.573Z,8.38
2023-09-08T09:28:03.329Z,9.90
2023-09-08T09:30:53.131Z,7.85
2023-09-08T09:33:20.611Z,8.63
2023-09-08T09:35:52.677Z,10.30
2023-09-08T09:40:50.291Z,6.53
2023-09-08T09:43:21.533Z,7.22
2023-09-08T09:48:20.314Z,7.63
2023-09-08T09:50:47.832Z,8.25
2023-09-08T09:53:17.561Z,7.03
2023-09-08T09:55:46.702Z,7.57
2023-09-08T09:58:15.656Z,7.50
2023-09-08T10:00:48.523Z,8.10
2023-09-08T10:03:16.678Z,7.85
2023-09-08T10:05:44.646Z,8.95
2023-09-08T10:08:11.839Z,7.93
2023-09-08T10:10:42.642Z,7.75
2023-09-08T10:13:12.736Z,6.18
2023-09-08T10:15:43.324Z,7.35
2023-09-08T10:18:16.528Z,7.30
2023-09-08T10:20:45.886Z,6.15
2023-09-08T10:23:41.687Z,6.75
2023-09-08T10:26:12.765Z,6.75
2023-09-08T10:28:40.267Z,7.03
2023-09-08T10:31:10.443Z,8.10
2023-09-08T10:36:09.503Z,7.28
2023-09-08T10:38:36.843Z,6.88
2023-09-08T10:41:20.540Z,6.82
2023-09-08T10:44:08.828Z,6.35
2023-09-08T10:46:38.605Z,7.10
2023-09-08T10:49:08.592Z,8.73
2023-09-08T10:51:37.008Z,6.18
2023-09-08T10:54:06.941Z,6.05
2023-09-08T10:56:57.165Z,6.75
2023-09-08T10:59:36.625Z,6.75
2023-09-08T11:02:05.623Z,6.82
2023-09-08T11:04:36.808Z,8.55
2023-09-08T11:09:37.762Z,7.25
2023-09-08T11:12:09.250Z,8.70
2023-09-08T11:14:36.713Z,5.70
2023-09-08T11:17:04.767Z,7.72
2023-09-08T11:19:49.920Z,9.35
2023-09-08T11:22:18.525Z,7.07
2023-09-08T11:24:46.444Z,6.35
2023-09-08T11:27:22.399Z,6.65
2023-09-08T11:30:15.253Z,7.20
2023-09-08T11:32:43.413Z,6.50
2023-09-08T11:35:12.498Z,7.57
2023-09-08T11:37:42.863Z,6.63
2023-09-08T11:40:13.437Z,6.97
2023-09-08T11:42:46.840Z,9.38
2023-09-08T11:45:18.924Z,8.13
2023-09-08T11:47:46.918Z,7.00
2023-09-08T11:50:21.338Z,8.70
2023-09-08T11:52:52.853Z,7.70
2023-09-08T11:55:23.299Z,6.10
2023-09-08T11:57:59.159Z,7.28
2023-09-08T12:00:28.141Z,6.32
2023-09-08T12:03:18.610Z,9.70
2023-09-08T12:05:54.510Z,7.95
2023-09-08T12:08:29.909Z,9.13
2023-09-08T12:11:18.568Z,7.45
2023-09-08T12:13:47.300Z,6.55
2023-09-08T12:16:26.228Z,8.48
2023-09-08T12:18:53.880Z,7.28
2023-09-08T12:24:15.029Z,6.53
2023-09-08T12:26:42.269Z,7.07
2023-09-08T12:29:15.085Z,6.32
2023-09-08T12:31:58.100Z,6.68
2023-09-08T12:34:32.438Z,6.20
2023-09-08T12:37:01.455Z,6.13
2023-09-08T12:39:30.880Z,6.05
2023-09-08T12:41:59.224Z,5.38
2023-09-08T12:44:31.360Z,6.43
2023-09-08T12:46:58.425Z,8.38
2023-09-08T12:49:26.080Z,6.90
2023-09-08T12:51:53.095Z,6.50
2023-09-08T12:54:20.664Z,4.78
2023-09-08T12:56:47.827Z,5.50
2023-09-08T12:59:15.204Z,6.25
2023-09-08T13:01:42.276Z,5.53
2023-09-08T13:04:10.082Z,5.13
2023-09-08T13:06:37.132Z,5.47
2023-09-08T13:09:05.642Z,5.55
2023-09-08T13:11:35.744Z,5.97
2023-09-08T13:14:05.070Z,5.83
2023-09-08T13:16:56.767Z,5.38
2023-09-08T13:19:24.161Z,6.60
2023-09-08T13:21:51.199Z,5.85
2023-09-08T13:24:22.048Z,5.43
2023-09-08T13:27:00.661Z,5.68
2023-09-08T13:29:35.609Z,6.40
2023-09-08T13:32:03.327Z,4.20
2023-09-08T13:34:30.871Z,5.32
2023-09-08T13:36:57.967Z,5.57
2023-09-08T13:39:25.252Z,5.18
2023-09-08T13:41:57.668Z,5.35
2023-09-08T13:44:44.693Z,5.40
2023-09-08T13:47:11.971Z,5.43
2023-09-08T13:49:41.159Z,4.57
2023-09-08T13:52:09.292Z,5.32
2023-09-08T13:54:39.987Z,7.20
2023-09-08T13:57:34.976Z,6.53
2023-09-08T14:00:05.169Z,5.80
2023-09-08T14:02:43.242Z,5.93
2023-09-08T14:05:15.225Z,6.22
2023-09-08T14:07:46.891Z,5.63
2023-09-08T14:11:05.610Z,5.53
2023-09-08T14:13:38.710Z,4.93
2023-09-08T14:16:06.635Z,5.80
2023-09-08T14:18:35.001Z,5.38
2023-09-08T14:21:03.674Z,5.35
2023-09-08T14:23:56.202Z,7.45
2023-09-08T14:26:23.899Z,5.80
2023-09-08T14:28:51.447Z,5.45
2023-09-08T14:31:19.212Z,5.13
2023-09-08T14:34:18.023Z,5.65
2023-09-08T14:36:45.752Z,6.55
2023-09-08T14:39:12.911Z,5.68
2023-09-08T14:41:40.364Z,5.80
2023-09-08T14:44:32.816Z,5.50
2023-09-08T14:47:01.085Z,6.38
2023-09-08T14:49:28.353Z,5.45
2023-09-08T14:51:56.026Z,7.40
2023-09-08T14:54:23.312Z,5.38
2023-09-08T14:56:51.397Z,5.72
2023-09-08T15:02:50.598Z,5.03
2023-09-08T15:05:18.514Z,5.20
2023-09-08T15:07:46.069Z,5.10
2023-09-08T15:10:18.035Z,4.88
2023-09-08T15:12:46.855Z,5.03
2023-09-08T15:15:14.418Z,5.88
2023-09-08T15:17:42.904Z,5.68
2023-09-08T15:20:11.299Z,5.57
2023-09-08T15:22:44.274Z,5.78
2023-09-08T15:25:14.183Z,5.25
2023-09-08T15:27:42.288Z,5.10
2023-09-08T15:30:11.489Z,6.45
2023-09-08T15:32:39.996Z,5.50
2023-09-08T15:35:08.812Z,5.15
2023-09-08T15:37:36.273Z,6.90
2023-09-08T15:40:05.067Z,5.13
2023-09-08T15:42:35.652Z,5.32
2023-09-08T15:45:04.460Z,5.18
2023-09-08T15:47:31.668Z,5.00
2023-09-08T15:49:59.196Z,4.60
2023-09-08T15:52:26.348Z,4.70
2023-09-08T15:54:53.906Z,5.63
2023-09-08T15:57:20.987Z,5.65
2023-09-08T15:59:48.686Z,6.30
2023-09-08T16:02:15.841Z,6.60
2023-09-08T16:04:43.436Z,6.13
2023-09-08T16:07:10.873Z,5.65
2023-09-08T16:09:39.496Z,5.07
2023-09-08T16:12:06.877Z,5.30
2023-09-08T16:14:34.430Z,6.20
2023-09-08T16:17:04.109Z,5.10
2023-09-08T16:19:31.535Z,5.05
2023-09-08T16:21:58.775Z,6.88
2023-09-08T16:24:27.359Z,6.15
2023-09-08T16:26:55.368Z,6.18
2023-09-08T16:29:22.750Z,7.60
2023-09-08T16:31:49.880Z,5.60
2023-09-08T16:34:17.284Z,5.47
2023-09-08T16:36:44.467Z,6.30
2023-09-08T16:39:12.474Z,5.50
2023-09-08T16:41:39.614Z,5.55
2023-09-08T16:44:07.311Z,5.30
2023-09-08T16:46:36.067Z,5.55
2023-09-08T16:49:05.735Z,6.75
2023-09-08T16:51:35.340Z,5.20
2023-09-08T16:54:03.891Z,5.78
2023-09-08T16:56:31.170Z,5.38
2023-09-08T16:59:02.156Z,5.80
2023-09-08T17:01:31.059Z,5.85
2023-09-08T17:03:58.776Z,5.28
2023-09-08T17:06:55.104Z,5.43
2023-09-08T17:09:23.936Z,5.28
2023-09-08T17:11:51.693Z,6.28
2023-09-08T17:14:19.326Z,5.35
2023-09-08T17:16:46.426Z,5.40
2023-09-08T17:19:14.011Z,6.55
2023-09-08T17:21:41.116Z,5.03
2023-09-08T17:24:09.022Z,5.85
2023-09-08T17:26:36.043Z,6.85
2023-09-08T17:29:03.632Z,6.70
2023-09-08T17:31:31.704Z,6.13
2023-09-08T17:33:59.192Z,6.43
2023-09-08T17:36:26.274Z,6.65
2023-09-08T17:38:53.742Z,7.38
2023-09-08T17:41:21.056Z,5.20
2023-09-08T17:43:48.406Z,7.10
2023-09-08T17:46:16.011Z,5.80
2023-09-08T17:48:43.563Z,6.25
2023-09-08T17:51:10.638Z,6.07
2023-09-08T17:53:38.563Z,6.28
2023-09-08T17:56:05.902Z,5.40
2023-09-08T17:58:33.311Z,5.78
2023-09-08T18:01:00.405Z,5.40
2023-09-08T18:03:29.713Z,5.10
2023-09-08T18:05:56.999Z,5.60
2023-09-08T18:08:24.689Z,5.90
2023-09-08T18:11:04.755Z,6.82
2023-09-08T18:13:32.564Z,6.10
2023-09-08T18:16:04.825Z,7.32
2023-09-08T18:18:41.481Z,7.10
2023-09-08T18:21:21.336Z,5.75
2023-09-08T18:23:49.123Z,6.05
2023-09-08T18:26:21.184Z,5.38
2023-09-08T18:28:52.818Z,6.63
2023-09-08T18:33:47.786Z,6.63
2023-09-08T18:36:24.703Z,5.38
2023-09-08T18:38:52.153Z,6.00
2023-09-08T18:41:19.379Z,5.35
2023-09-08T18:43:46.765Z,6.70
2023-09-08T18:46:13.859Z,6.53
2023-09-08T18:48:41.440Z,5.47
2023-09-08T18:51:08.518Z,6.55
2023-09-08T18:53:36.381Z,6.60
2023-09-08T18:56:04.760Z,6.47
2023-09-08T18:58:34.421Z,6.07
2023-09-08T19:01:06.050Z,5.90
2023-09-08T19:06:01.903Z,5.63
2023-09-08T19:08:31.589Z,5.68
2023-09-08T19:11:01.023Z,6.45
2023-09-08T19:13:28.603Z,5.97
2023-09-08T19:15:55.934Z,6.93
2023-09-08T19:18:23.359Z,5.75
2023-09-08T19:20:50.504Z,5.65
2023-09-08T19:23:18.043Z,5.55
2023-09-08T19:25:45.307Z,5.97
2023-09-08T19:28:12.991Z,7.60
2023-09-08T19:30:40.508Z,5.43
2023-09-08T19:33:07.879Z,5.55
2023-09-08T19:35:35.916Z,5.43
2023-09-08T19:38:03.582Z,5.88
2023-09-08T19:40:32.172Z,6.28
2023-09-08T19:43:18.537Z,6.40
2023-09-08T19:45:45.970Z,5.68
2023-09-08T19:48:13.943Z,6.47
2023-09-08T19:50:45.210Z,5.00
2023-09-08T19:53:12.315Z,6.00
2023-09-08T19:55:40.839Z,6.97
2023-09-08T19:58:08.019Z,5.75
2023-09-08T20:00:35.284Z,6.80
2023-09-08T20:03:02.876Z,6.65
2023-09-08T20:05:30.420Z,4.75
2023-09-08T20:07:57.505Z,5.15
2023-09-08T20:10:24.879Z,5.85
2023-09-08T20:12:53.110Z,6.43
2023-09-08T20:15:21.154Z,5.93
2023-09-08T20:18:18.786Z,5.28
2023-09-08T20:20:46.252Z,7.07
2023-09-08T20:23:14.614Z,4.53
2023-09-08T20:25:42.097Z,5.00
2023-09-08T20:28:09.129Z,4.30
2023-09-08T20:30:41.140Z,6.30
2023-09-08T20:33:08.355Z,5.78
2023-09-08T20:35:37.272Z,5.70
2023-09-08T20:38:05.916Z,5.82
2023-09-08T20:40:33.349Z,4.82
2023-09-08T20:43:00.432Z,4.90
2023-09-08T20:45:28.601Z,5.20
2023-09-08T20:47:55.736Z,5.18
2023-09-08T20:50:25.720Z,5.63
2023-09-08T20:52:52.900Z,6.60
2023-09-08T20:55:20.379Z,6.03
2023-09-08T20:57:47.487Z,4.65
2023-09-08T21:00:15.352Z,4.30
2023-09-08T21:02:42.749Z,5.22
2023-09-08T21:05:10.509Z,4.28
2023-09-08T21:07:37.782Z,4.82
2023-09-08T21:10:05.701Z,4.50
2023-09-08T21:12:32.849Z,4.85
2023-09-08T21:15:00.420Z,5.47
2023-09-08T21:17:27.674Z,4.45
2023-09-08T21:19:55.672Z,4.80
2023-09-08T21:22:22.790Z,4.53
2023-09-08T21:24:50.160Z,5.30
2023-09-08T21:27:17.256Z,4.53
2023-09-08T21:29:44.582Z,5.63
2023-09-08T21:32:11.776Z,5.28
2023-09-08T21:34:39.129Z,5.22
2023-09-08T21:37:06.254Z,6.63
2023-09-08T21:39:33.526Z,4.65
2023-09-08T21:42:02.286Z,4.78
2023-09-08T21:44:30.470Z,5.20
2023-09-08T21:46:57.613Z,5.47
2023-09-08T21:49:24.997Z,5.57
2023-09-08T21:51:52.722Z,5.82
2023-09-08T21:54:20.193Z,6.97
2023-09-08T21:56:47.305Z,8.50
2023-09-08T21:59:14.630Z,7.50
2023-09-08T22:01:41.969Z,10.45
2023-09-08T22:04:09.567Z,7.47
2023-09-08T22:06:36.892Z,9.02
2023-09-08T22:09:06.110Z,7.70
2023-09-08T22:11:33.306Z,7.38
2023-09-08T22:14:00.642Z,7.72
2023-09-08T22:16:29.939Z,7.65
2023-09-08T22:18:57.503Z,7.88
2023-09-08T22:21:24.568Z,7.85
2023-09-08T22:23:52.034Z,6.90
2023-09-08T22:26:19.932Z,7.32
2023-09-08T22:28:50.978Z,7.43
2023-09-08T22:31:18.393Z,8.32
2023-09-08T22:33:45.756Z,6.53
2023-09-08T22:36:12.947Z,6.22
2023-09-08T22:38:40.450Z,6.25
2023-09-08T22:41:07.656Z,5.80
2023-09-08T22:43:35.383Z,6.25
2023-09-08T22:46:03.465Z,6.28
2023-09-08T22:48:30.901Z,6.53
2023-09-08T22:50:57.942Z,6.03
2023-09-08T22:53:25.465Z,6.20
2023-09-08T22:55:52.698Z,6.47
2023-09-08T22:58:20.178Z,7.35
2023-09-08T23:00:47.415Z,6.55
2023-09-08T23:03:15.425Z,7.00
2023-09-08T23:05:43.491Z,6.30
2023-09-08T23:08:10.926Z,7.78
2023-09-08T23:10:38.054Z,7.70
2023-09-08T23:13:05.328Z,6.70
2023-09-08T23:15:34.162Z,6.68
2023-09-08T23:18:01.598Z,7.32
2023-09-08T23:20:28.895Z,8.05
2023-09-08T23:22:56.212Z,5.82
2023-09-08T23:25:23.393Z,5.57
2023-09-08T23:27:50.906Z,7.03
2023-09-08T23:30:18.241Z,5.53
2023-09-08T23:32:46.206Z,5.22
2023-09-08T23:35:13.819Z,5.75
2023-09-08T23:37:41.292Z,5.43
2023-09-08T23:40:10.954Z,6.53
2023-09-08T23:42:38.870Z,5.55
2023-09-08T23:45:07.199Z,5.53
2023-09-08T23:47:34.632Z,5.47
2023-09-08T23:50:01.837Z,5.53
2023-09-08T23:52:29.216Z,6.10
2023-09-08T23:54:56.542Z,6.50
2023-09-08T23:57:23.904Z,5.40
2023-09-08T23:59:51.235Z,5.35
